sensor_id;sensor_type;location;lat;lon;timestamp;P1;durP1;ratioP1;P2;durP2;ratioP2
61038;SDS011;46919;45.816;3.104;2023-12-07T00:01:33;42.63;;;19.10;;
61038;SDS011;46919;45.816;3.104;2023-12-07T00:03:59;42.13;;;19.13;;
61038;SDS011;46919;45.816;3.104;2023-12-07T00:06:25;38.05;;;18.73;;
61038;SDS011;46919;45.816;3.104;2023-12-07T00:08:51;27.45;;;13.85;;
61038;SDS011;46919;45.816;3.104;2023-12-07T00:11:17;38.72;;;17.85;;
61038;SDS011;46919;45.816;3.104;2023-12-07T00:13:42;32.00;;;16.13;;
61038;SDS011;46919;45.816;3.104;2023-12-07T00:16:07;23.35;;;12.85;;
61038;SDS011;46919;45.816;3.104;2023-12-07T00:18:33;26.52;;;13.93;;
61038;SDS011;46919;45.816;3.104;2023-12-07T00:20:58;19.48;;;10.65;;
61038;SDS011;46919;45.816;3.104;2023-12-07T00:23:24;16.88;;;9.45;;
61038;SDS011;46919;45.816;3.104;2023-12-07T00:25:49;17.88;;;10.23;;
61038;SDS011;46919;45.816;3.104;2023-12-07T00:28:15;21.40;;;10.80;;
61038;SDS011;46919;45.816;3.104;2023-12-07T00:30:41;20.75;;;11.02;;
61038;SDS011;46919;45.816;3.104;2023-12-07T00:33:07;21.75;;;11.82;;
61038;SDS011;46919;45.816;3.104;2023-12-07T00:35:34;17.63;;;9.55;;
61038;SDS011;46919;45.816;3.104;2023-12-07T00:37:59;14.05;;;8.43;;
61038;SDS011;46919;45.816;3.104;2023-12-07T00:40:25;18.27;;;9.20;;
61038;SDS011;46919;45.816;3.104;2023-12-07T00:42:50;12.75;;;8.30;;
61038;SDS011;46919;45.816;3.104;2023-12-07T00:45:16;16.00;;;8.93;;
61038;SDS011;46919;45.816;3.104;2023-12-07T00:47:41;19.27;;;9.68;;
61038;SDS011;46919;45.816;3.104;2023-12-07T00:50:07;18.83;;;10.60;;
61038;SDS011;46919;45.816;3.104;2023-12-07T00:52:33;18.25;;;10.43;;
61038;SDS011;46919;45.816;3.104;2023-12-07T00:54:58;16.00;;;10.15;;
61038;SDS011;46919;45.816;3.104;2023-12-07T00:57:23;16.90;;;9.38;;
61038;SDS011;46919;45.816;3.104;2023-12-07T00:59:49;20.85;;;11.10;;
61038;SDS011;46919;45.816;3.104;2023-12-07T01:02:14;18.83;;;11.13;;
61038;SDS011;46919;45.816;3.104;2023-12-07T01:04:40;22.33;;;11.70;;
61038;SDS011;46919;45.816;3.104;2023-12-07T01:07:05;22.45;;;12.35;;
61038;SDS011;46919;45.816;3.104;2023-12-07T01:09:31;21.52;;;12.10;;
61038;SDS011;46919;45.816;3.104;2023-12-07T01:11:56;28.95;;;14.25;;
61038;SDS011;46919;45.816;3.104;2023-12-07T01:14:23;25.50;;;13.43;;
61038;SDS011;46919;45.816;3.104;2023-12-07T01:16:48;23.65;;;12.75;;
61038;SDS011;46919;45.816;3.104;2023-12-07T01:19:14;21.88;;;11.23;;
61038;SDS011;46919;45.816;3.104;2023-12-07T01:21:40;21.20;;;11.07;;
61038;SDS011;46919;45.816;3.104;2023-12-07T01:24:06;15.93;;;8.88;;
61038;SDS011;46919;45.816;3.104;2023-12-07T01:26:32;14.55;;;8.48;;
61038;SDS011;46919;45.816;3.104;2023-12-07T01:28:57;16.35;;;8.82;;
61038;SDS011;46919;45.816;3.104;2023-12-07T01:31:23;13.95;;;7.97;;
61038;SDS011;46919;45.816;3.104;2023-12-07T01:33:48;17.55;;;9.30;;
61038;SDS011;46919;45.816;3.104;2023-12-07T01:36:13;16.02;;;8.52;;
61038;SDS011;46919;45.816;3.104;2023-12-07T01:38:39;14.13;;;8.23;;
61038;SDS011;46919;45.816;3.104;2023-12-07T01:41:04;13.88;;;8.48;;
61038;SDS011;46919;45.816;3.104;2023-12-07T01:43:30;16.02;;;8.23;;
61038;SDS011;46919;45.816;3.104;2023-12-07T01:45:56;11.95;;;7.28;;
61038;SDS011;46919;45.816;3.104;2023-12-07T01:48:23;11.65;;;6.45;;
61038;SDS011;46919;45.816;3.104;2023-12-07T01:50:51;9.65;;;6.63;;
61038;SDS011;46919;45.816;3.104;2023-12-07T01:53:18;12.95;;;6.60;;
61038;SDS011;46919;45.816;3.104;2023-12-07T01:55:46;10.82;;;6.60;;
61038;SDS011;46919;45.816;3.104;2023-12-07T01:58:12;13.13;;;8.00;;
61038;SDS011;46919;45.816;3.104;2023-12-07T02:00:39;16.33;;;8.88;;
61038;SDS011;46919;45.816;3.104;2023-12-07T02:03:05;14.50;;;8.10;;
61038;SDS011;46919;45.816;3.104;2023-12-07T02:05:31;11.77;;;7.97;;
61038;SDS011;46919;45.816;3.104;2023-12-07T02:07:57;14.52;;;7.85;;
61038;SDS011;46919;45.816;3.104;2023-12-07T02:10:23;10.75;;;6.47;;
61038;SDS011;46919;45.816;3.104;2023-12-07T02:12:49;11.50;;;7.15;;
61038;SDS011;46919;45.816;3.104;2023-12-07T02:15:16;10.75;;;6.70;;
61038;SDS011;46919;45.816;3.104;2023-12-07T02:20:17;13.82;;;6.85;;
61038;SDS011;46919;45.816;3.104;2023-12-07T02:22:54;11.45;;;6.47;;
61038;SDS011;46919;45.816;3.104;2023-12-07T02:25:40;14.13;;;7.38;;
61038;SDS011;46919;45.816;3.104;2023-12-07T02:28:10;13.15;;;7.43;;
61038;SDS011;46919;45.816;3.104;2023-12-07T02:30:36;12.93;;;7.20;;
61038;SDS011;46919;45.816;3.104;2023-12-07T02:33:01;12.52;;;7.53;;
61038;SDS011;46919;45.816;3.104;2023-12-07T02:35:27;14.27;;;7.80;;
61038;SDS011;46919;45.816;3.104;2023-12-07T02:37:53;16.75;;;8.20;;
61038;SDS011;46919;45.816;3.104;2023-12-07T02:40:22;14.73;;;7.80;;
61038;SDS011;46919;45.816;3.104;2023-12-07T02:42:51;13.77;;;7.55;;
61038;SDS011;46919;45.816;3.104;2023-12-07T02:45:17;15.63;;;7.57;;
61038;SDS011;46919;45.816;3.104;2023-12-07T02:47:43;12.60;;;7.80;;
61038;SDS011;46919;45.816;3.104;2023-12-07T02:50:10;13.57;;;7.85;;
61038;SDS011;46919;45.816;3.104;2023-12-07T02:52:36;12.02;;;7.35;;
61038;SDS011;46919;45.816;3.104;2023-12-07T02:55:01;11.77;;;6.95;;
61038;SDS011;46919;45.816;3.104;2023-12-07T02:57:27;15.25;;;8.02;;
61038;SDS011;46919;45.816;3.104;2023-12-07T02:59:54;14.73;;;7.85;;
61038;SDS011;46919;45.816;3.104;2023-12-07T03:02:20;13.50;;;7.60;;
61038;SDS011;46919;45.816;3.104;2023-12-07T03:04:45;14.95;;;8.13;;
61038;SDS011;46919;45.816;3.104;2023-12-07T03:07:11;14.55;;;8.18;;
61038;SDS011;46919;45.816;3.104;2023-12-07T03:09:36;14.35;;;7.53;;
61038;SDS011;46919;45.816;3.104;2023-12-07T03:12:01;15.75;;;8.57;;
61038;SDS011;46919;45.816;3.104;2023-12-07T03:14:27;12.45;;;7.68;;
61038;SDS011;46919;45.816;3.104;2023-12-07T03:16:52;16.13;;;8.07;;
61038;SDS011;46919;45.816;3.104;2023-12-07T03:19:18;9.98;;;6.40;;
61038;SDS011;46919;45.816;3.104;2023-12-07T03:21:44;11.10;;;6.65;;
61038;SDS011;46919;45.816;3.104;2023-12-07T03:24:09;9.95;;;6.05;;
61038;SDS011;46919;45.816;3.104;2023-12-07T03:26:35;10.50;;;6.65;;
61038;SDS011;46919;45.816;3.104;2023-12-07T03:29:01;10.90;;;6.72;;
61038;SDS011;46919;45.816;3.104;2023-12-07T03:31:27;9.70;;;6.07;;
61038;SDS011;46919;45.816;3.104;2023-12-07T03:33:54;10.95;;;6.38;;
61038;SDS011;46919;45.816;3.104;2023-12-07T03:36:20;9.45;;;5.88;;
61038;SDS011;46919;45.816;3.104;2023-12-07T03:38:47;9.57;;;5.78;;
61038;SDS011;46919;45.816;3.104;2023-12-07T03:41:12;9.23;;;5.50;;
61038;SDS011;46919;45.816;3.104;2023-12-07T03:43:38;12.70;;;6.32;;
61038;SDS011;46919;45.816;3.104;2023-12-07T03:46:03;14.65;;;6.97;;
61038;SDS011;46919;45.816;3.104;2023-12-07T03:48:30;10.20;;;6.18;;
61038;SDS011;46919;45.816;3.104;2023-12-07T03:50:55;13.57;;;6.55;;
61038;SDS011;46919;45.816;3.104;2023-12-07T03:53:21;7.82;;;4.93;;
61038;SDS011;46919;45.816;3.104;2023-12-07T03:55:46;9.38;;;5.88;;
61038;SDS011;46919;45.816;3.104;2023-12-07T03:58:11;8.40;;;5.35;;
61038;SDS011;46919;45.816;3.104;2023-12-07T04:00:38;9.07;;;5.65;;
61038;SDS011;46919;45.816;3.104;2023-12-07T04:03:04;9.02;;;5.65;;
61038;SDS011;46919;45.816;3.104;2023-12-07T04:05:29;12.63;;;6.50;;
61038;SDS011;46919;45.816;3.104;2023-12-07T04:07:55;9.65;;;6.00;;
61038;SDS011;46919;45.816;3.104;2023-12-07T04:10:20;14.88;;;7.53;;
61038;SDS011;46919;45.816;3.104;2023-12-07T04:12:46;10.38;;;5.80;;
61038;SDS011;46919;45.816;3.104;2023-12-07T04:15:11;11.95;;;6.93;;
61038;SDS011;46919;45.816;3.104;2023-12-07T04:17:36;15.43;;;7.70;;
61038;SDS011;46919;45.816;3.104;2023-12-07T04:20:02;13.52;;;6.45;;
61038;SDS011;46919;45.816;3.104;2023-12-07T04:22:28;8.90;;;5.15;;
61038;SDS011;46919;45.816;3.104;2023-12-07T04:24:54;11.52;;;4.93;;
61038;SDS011;46919;45.816;3.104;2023-12-07T04:27:19;8.35;;;4.43;;
61038;SDS011;46919;45.816;3.104;2023-12-07T04:29:45;8.40;;;4.28;;
61038;SDS011;46919;45.816;3.104;2023-12-07T04:32:10;7.03;;;4.13;;
61038;SDS011;46919;45.816;3.104;2023-12-07T04:34:36;9.70;;;4.93;;
61038;SDS011;46919;45.816;3.104;2023-12-07T04:37:01;10.48;;;4.95;;
61038;SDS011;46919;45.816;3.104;2023-12-07T04:39:27;9.48;;;5.45;;
61038;SDS011;46919;45.816;3.104;2023-12-07T04:41:53;10.85;;;6.15;;
61038;SDS011;46919;45.816;3.104;2023-12-07T04:44:19;9.27;;;5.15;;
61038;SDS011;46919;45.816;3.104;2023-12-07T04:46:44;8.05;;;4.82;;
61038;SDS011;46919;45.816;3.104;2023-12-07T04:49:10;10.40;;;5.25;;
61038;SDS011;46919;45.816;3.104;2023-12-07T04:51:35;12.98;;;5.75;;
61038;SDS011;46919;45.816;3.104;2023-12-07T04:54:01;7.60;;;4.82;;
61038;SDS011;46919;45.816;3.104;2023-12-07T04:56:27;8.25;;;4.82;;
61038;SDS011;46919;45.816;3.104;2023-12-07T04:58:52;8.25;;;4.38;;
61038;SDS011;46919;45.816;3.104;2023-12-07T05:01:18;8.30;;;4.43;;
61038;SDS011;46919;45.816;3.104;2023-12-07T05:03:46;10.68;;;4.95;;
61038;SDS011;46919;45.816;3.104;2023-12-07T05:06:12;12.55;;;6.60;;
61038;SDS011;46919;45.816;3.104;2023-12-07T05:08:38;13.75;;;6.63;;
61038;SDS011;46919;45.816;3.104;2023-12-07T05:11:04;12.95;;;6.22;;
61038;SDS011;46919;45.816;3.104;2023-12-07T05:13:31;12.10;;;6.53;;
61038;SDS011;46919;45.816;3.104;2023-12-07T05:15:58;10.27;;;5.70;;
61038;SDS011;46919;45.816;3.104;2023-12-07T05:18:24;8.82;;;5.60;;
61038;SDS011;46919;45.816;3.104;2023-12-07T05:20:50;8.50;;;4.88;;
61038;SDS011;46919;45.816;3.104;2023-12-07T05:23:15;7.57;;;4.78;;
61038;SDS011;46919;45.816;3.104;2023-12-07T05:25:41;8.40;;;5.35;;
61038;SDS011;46919;45.816;3.104;2023-12-07T05:28:06;8.25;;;4.68;;
61038;SDS011;46919;45.816;3.104;2023-12-07T05:30:32;9.32;;;4.70;;
61038;SDS011;46919;45.816;3.104;2023-12-07T05:32:57;8.32;;;4.15;;
61038;SDS011;46919;45.816;3.104;2023-12-07T05:35:22;7.05;;;4.32;;
61038;SDS011;46919;45.816;3.104;2023-12-07T05:37:48;8.38;;;3.95;;
61038;SDS011;46919;45.816;3.104;2023-12-07T05:40:14;7.25;;;4.47;;
61038;SDS011;46919;45.816;3.104;2023-12-07T05:42:41;9.70;;;5.35;;
61038;SDS011;46919;45.816;3.104;2023-12-07T05:45:06;9.35;;;5.43;;
61038;SDS011;46919;45.816;3.104;2023-12-07T05:47:34;9.25;;;5.13;;
61038;SDS011;46919;45.816;3.104;2023-12-07T05:50:00;8.90;;;5.15;;
61038;SDS011;46919;45.816;3.104;2023-12-07T05:52:28;7.90;;;4.90;;
61038;SDS011;46919;45.816;3.104;2023-12-07T05:54:53;6.95;;;4.47;;
61038;SDS011;46919;45.816;3.104;2023-12-07T05:57:19;6.90;;;4.45;;
61038;SDS011;46919;45.816;3.104;2023-12-07T05:59:44;8.43;;;4.95;;
61038;SDS011;46919;45.816;3.104;2023-12-07T06:02:09;10.00;;;4.50;;
61038;SDS011;46919;45.816;3.104;2023-12-07T06:04:35;9.70;;;5.80;;
61038;SDS011;46919;45.816;3.104;2023-12-07T06:07:00;19.67;;;8.27;;
61038;SDS011;46919;45.816;3.104;2023-12-07T06:09:27;14.73;;;8.10;;
61038;SDS011;46919;45.816;3.104;2023-12-07T06:11:53;10.55;;;6.55;;
61038;SDS011;46919;45.816;3.104;2023-12-07T06:14:19;7.93;;;5.82;;
61038;SDS011;46919;45.816;3.104;2023-12-07T06:16:45;10.15;;;5.70;;
61038;SDS011;46919;45.816;3.104;2023-12-07T06:19:10;10.13;;;5.88;;
61038;SDS011;46919;45.816;3.104;2023-12-07T06:21:35;10.52;;;6.03;;
61038;SDS011;46919;45.816;3.104;2023-12-07T06:24:01;8.90;;;6.20;;
61038;SDS011;46919;45.816;3.104;2023-12-07T06:26:26;9.80;;;6.10;;
61038;SDS011;46919;45.816;3.104;2023-12-07T06:28:52;10.32;;;6.00;;
61038;SDS011;46919;45.816;3.104;2023-12-07T06:31:17;9.07;;;5.43;;
61038;SDS011;46919;45.816;3.104;2023-12-07T06:33:47;10.82;;;6.10;;
61038;SDS011;46919;45.816;3.104;2023-12-07T06:36:19;10.50;;;5.63;;
61038;SDS011;46919;45.816;3.104;2023-12-07T06:38:46;8.45;;;5.00;;
61038;SDS011;46919;45.816;3.104;2023-12-07T06:41:12;10.27;;;5.55;;
61038;SDS011;46919;45.816;3.104;2023-12-07T06:43:37;9.95;;;5.57;;
61038;SDS011;46919;45.816;3.104;2023-12-07T06:46:03;13.07;;;5.88;;
61038;SDS011;46919;45.816;3.104;2023-12-07T06:48:29;10.90;;;5.85;;
61038;SDS011;46919;45.816;3.104;2023-12-07T06:50:54;8.05;;;5.38;;
61038;SDS011;46919;45.816;3.104;2023-12-07T06:53:19;11.15;;;6.45;;
61038;SDS011;46919;45.816;3.104;2023-12-07T06:55:45;12.88;;;7.13;;
61038;SDS011;46919;45.816;3.104;2023-12-07T06:58:10;18.10;;;7.25;;
61038;SDS011;46919;45.816;3.104;2023-12-07T07:00:36;13.63;;;7.32;;
61038;SDS011;46919;45.816;3.104;2023-12-07T07:03:01;11.85;;;6.65;;
61038;SDS011;46919;45.816;3.104;2023-12-07T07:05:27;14.38;;;6.53;;
61038;SDS011;46919;45.816;3.104;2023-12-07T07:07:53;16.30;;;7.70;;
61038;SDS011;46919;45.816;3.104;2023-12-07T07:10:20;15.57;;;7.97;;
61038;SDS011;46919;45.816;3.104;2023-12-07T07:12:46;16.38;;;7.55;;
61038;SDS011;46919;45.816;3.104;2023-12-07T07:15:11;14.73;;;7.53;;
61038;SDS011;46919;45.816;3.104;2023-12-07T07:17:36;14.52;;;7.53;;
61038;SDS011;46919;45.816;3.104;2023-12-07T07:20:02;15.45;;;7.30;;
61038;SDS011;46919;45.816;3.104;2023-12-07T07:22:27;16.77;;;7.20;;
61038;SDS011;46919;45.816;3.104;2023-12-07T07:24:53;12.95;;;6.47;;
61038;SDS011;46919;45.816;3.104;2023-12-07T07:27:18;11.25;;;6.28;;
61038;SDS011;46919;45.816;3.104;2023-12-07T07:29:44;12.57;;;6.38;;
61038;SDS011;46919;45.816;3.104;2023-12-07T07:32:09;16.15;;;8.52;;
61038;SDS011;46919;45.816;3.104;2023-12-07T07:34:35;16.55;;;8.07;;
61038;SDS011;46919;45.816;3.104;2023-12-07T07:37:01;12.52;;;7.88;;
61038;SDS011;46919;45.816;3.104;2023-12-07T07:39:28;16.58;;;7.93;;
61038;SDS011;46919;45.816;3.104;2023-12-07T07:41:53;13.35;;;8.23;;
61038;SDS011;46919;45.816;3.104;2023-12-07T07:44:18;13.13;;;8.80;;
61038;SDS011;46919;45.816;3.104;2023-12-07T07:46:44;12.55;;;7.55;;
61038;SDS011;46919;45.816;3.104;2023-12-07T07:49:09;12.35;;;7.50;;
61038;SDS011;46919;45.816;3.104;2023-12-07T07:51:35;10.13;;;6.72;;
61038;SDS011;46919;45.816;3.104;2023-12-07T07:54:00;12.45;;;7.57;;
61038;SDS011;46919;45.816;3.104;2023-12-07T07:56:26;12.88;;;7.55;;
61038;SDS011;46919;45.816;3.104;2023-12-07T07:58:51;12.63;;;8.30;;
61038;SDS011;46919;45.816;3.104;2023-12-07T08:01:16;16.20;;;8.50;;
61038;SDS011;46919;45.816;3.104;2023-12-07T08:03:42;13.05;;;7.75;;
61038;SDS011;46919;45.816;3.104;2023-12-07T08:06:07;13.93;;;8.23;;
61038;SDS011;46919;45.816;3.104;2023-12-07T08:08:33;18.52;;;8.52;;
61038;SDS011;46919;45.816;3.104;2023-12-07T08:10:59;13.88;;;8.57;;
61038;SDS011;46919;45.816;3.104;2023-12-07T08:13:26;16.83;;;9.13;;
61038;SDS011;46919;45.816;3.104;2023-12-07T08:15:52;16.88;;;9.23;;
61038;SDS011;46919;45.816;3.104;2023-12-07T08:18:18;33.67;;;16.98;;
61038;SDS011;46919;45.816;3.104;2023-12-07T08:20:43;21.48;;;11.75;;
61038;SDS011;46919;45.816;3.104;2023-12-07T08:23:09;19.17;;;10.60;;
61038;SDS011;46919;45.816;3.104;2023-12-07T08:25:35;19.65;;;10.85;;
61038;SDS011;46919;45.816;3.104;2023-12-07T08:28:00;17.27;;;10.85;;
61038;SDS011;46919;45.816;3.104;2023-12-07T08:30:26;22.38;;;12.57;;
61038;SDS011;46919;45.816;3.104;2023-12-07T08:32:51;20.35;;;12.60;;
61038;SDS011;46919;45.816;3.104;2023-12-07T08:35:17;32.17;;;16.90;;
61038;SDS011;46919;45.816;3.104;2023-12-07T08:37:42;29.00;;;17.60;;
61038;SDS011;46919;45.816;3.104;2023-12-07T08:40:07;27.48;;;16.55;;
61038;SDS011;46919;45.816;3.104;2023-12-07T08:42:36;29.50;;;16.70;;
61038;SDS011;46919;45.816;3.104;2023-12-07T08:45:01;28.77;;;16.77;;
61038;SDS011;46919;45.816;3.104;2023-12-07T08:47:27;27.40;;;15.98;;
61038;SDS011;46919;45.816;3.104;2023-12-07T08:49:55;28.70;;;18.27;;
61038;SDS011;46919;45.816;3.104;2023-12-07T08:52:20;31.52;;;17.92;;
61038;SDS011;46919;45.816;3.104;2023-12-07T08:54:45;30.92;;;18.30;;
61038;SDS011;46919;45.816;3.104;2023-12-07T08:57:11;26.60;;;15.32;;
61038;SDS011;46919;45.816;3.104;2023-12-07T08:59:37;25.80;;;15.00;;
61038;SDS011;46919;45.816;3.104;2023-12-07T09:02:02;23.52;;;14.25;;
61038;SDS011;46919;45.816;3.104;2023-12-07T09:04:28;26.42;;;15.98;;
61038;SDS011;46919;45.816;3.104;2023-12-07T09:06:54;26.60;;;14.98;;
61038;SDS011;46919;45.816;3.104;2023-12-07T09:09:19;19.95;;;12.35;;
61038;SDS011;46919;45.816;3.104;2023-12-07T09:11:45;16.23;;;10.95;;
61038;SDS011;46919;45.816;3.104;2023-12-07T09:14:11;16.40;;;10.77;;
61038;SDS011;46919;45.816;3.104;2023-12-07T09:16:42;17.85;;;10.65;;
61038;SDS011;46919;45.816;3.104;2023-12-07T09:19:11;15.15;;;10.05;;
61038;SDS011;46919;45.816;3.104;2023-12-07T09:21:37;13.05;;;9.43;;
61038;SDS011;46919;45.816;3.104;2023-12-07T09:24:03;13.02;;;8.32;;
61038;SDS011;46919;45.816;3.104;2023-12-07T09:26:30;13.10;;;7.95;;
61038;SDS011;46919;45.816;3.104;2023-12-07T09:28:56;10.13;;;7.55;;
61038;SDS011;46919;45.816;3.104;2023-12-07T09:31:21;10.48;;;7.38;;
61038;SDS011;46919;45.816;3.104;2023-12-07T09:33:47;14.20;;;9.15;;
61038;SDS011;46919;45.816;3.104;2023-12-07T09:36:16;22.25;;;12.20;;
61038;SDS011;46919;45.816;3.104;2023-12-07T09:38:43;12.98;;;9.10;;
61038;SDS011;46919;45.816;3.104;2023-12-07T09:41:08;14.75;;;10.40;;
61038;SDS011;46919;45.816;3.104;2023-12-07T09:43:34;15.82;;;11.20;;
61038;SDS011;46919;45.816;3.104;2023-12-07T09:46:00;13.15;;;8.05;;
61038;SDS011;46919;45.816;3.104;2023-12-07T09:48:26;16.05;;;6.90;;
61038;SDS011;46919;45.816;3.104;2023-12-07T09:50:51;9.38;;;6.47;;
61038;SDS011;46919;45.816;3.104;2023-12-07T09:53:20;13.18;;;6.97;;
61038;SDS011;46919;45.816;3.104;2023-12-07T09:55:46;9.27;;;6.85;;
61038;SDS011;46919;45.816;3.104;2023-12-07T09:58:12;11.15;;;7.88;;
61038;SDS011;46919;45.816;3.104;2023-12-07T10:00:37;11.38;;;7.15;;
61038;SDS011;46919;45.816;3.104;2023-12-07T10:03:03;9.10;;;6.78;;
61038;SDS011;46919;45.816;3.104;2023-12-07T10:05:32;10.35;;;6.85;;
61038;SDS011;46919;45.816;3.104;2023-12-07T10:07:58;9.13;;;6.88;;
61038;SDS011;46919;45.816;3.104;2023-12-07T10:10:23;10.52;;;6.35;;
61038;SDS011;46919;45.816;3.104;2023-12-07T10:12:55;9.48;;;5.15;;
61038;SDS011;46919;45.816;3.104;2023-12-07T10:15:24;8.60;;;5.32;;
61038;SDS011;46919;45.816;3.104;2023-12-07T10:17:54;9.70;;;4.88;;
61038;SDS011;46919;45.816;3.104;2023-12-07T10:20:23;7.85;;;5.40;;
61038;SDS011;46919;45.816;3.104;2023-12-07T10:23:03;15.48;;;7.78;;
61038;SDS011;46919;45.816;3.104;2023-12-07T10:25:30;13.15;;;7.13;;
61038;SDS011;46919;45.816;3.104;2023-12-07T10:27:56;9.48;;;5.47;;
61038;SDS011;46919;45.816;3.104;2023-12-07T10:30:22;7.45;;;5.05;;
61038;SDS011;46919;45.816;3.104;2023-12-07T10:32:51;8.00;;;5.15;;
61038;SDS011;46919;45.816;3.104;2023-12-07T10:35:17;8.65;;;5.00;;
61038;SDS011;46919;45.816;3.104;2023-12-07T10:37:43;8.45;;;5.57;;
61038;SDS011;46919;45.816;3.104;2023-12-07T10:40:09;10.85;;;5.82;;
61038;SDS011;46919;45.816;3.104;2023-12-07T10:42:35;15.07;;;5.93;;
61038;SDS011;46919;45.816;3.104;2023-12-07T10:45:05;11.50;;;6.35;;
61038;SDS011;46919;45.816;3.104;2023-12-07T10:47:35;10.52;;;6.00;;
61038;SDS011;46919;45.816;3.104;2023-12-07T10:50:02;9.73;;;6.35;;
61038;SDS011;46919;45.816;3.104;2023-12-07T10:52:31;11.85;;;6.38;;
61038;SDS011;46919;45.816;3.104;2023-12-07T10:55:03;12.45;;;6.28;;
61038;SDS011;46919;45.816;3.104;2023-12-07T10:57:32;10.48;;;6.57;;
61038;SDS011;46919;45.816;3.104;2023-12-07T11:00:00;10.52;;;6.22;;
61038;SDS011;46919;45.816;3.104;2023-12-07T11:02:29;12.38;;;7.03;;
61038;SDS011;46919;45.816;3.104;2023-12-07T11:04:57;12.10;;;7.10;;
61038;SDS011;46919;45.816;3.104;2023-12-07T11:07:24;11.13;;;7.07;;
61038;SDS011;46919;45.816;3.104;2023-12-07T11:10:00;10.25;;;7.25;;
61038;SDS011;46919;45.816;3.104;2023-12-07T11:12:38;10.50;;;6.82;;
61038;SDS011;46919;45.816;3.104;2023-12-07T11:15:10;12.52;;;7.40;;
61038;SDS011;46919;45.816;3.104;2023-12-07T11:17:49;10.95;;;7.72;;
61038;SDS011;46919;45.816;3.104;2023-12-07T11:20:20;9.25;;;6.50;;
61038;SDS011;46919;45.816;3.104;2023-12-07T11:22:46;11.55;;;7.18;;
61038;SDS011;46919;45.816;3.104;2023-12-07T11:25:14;11.85;;;6.05;;
61038;SDS011;46919;45.816;3.104;2023-12-07T11:27:39;10.20;;;6.40;;
61038;SDS011;46919;45.816;3.104;2023-12-07T11:30:06;11.15;;;6.35;;
61038;SDS011;46919;45.816;3.104;2023-12-07T11:32:32;12.05;;;6.88;;
61038;SDS011;46919;45.816;3.104;2023-12-07T11:35:01;7.53;;;5.63;;
61038;SDS011;46919;45.816;3.104;2023-12-07T11:37:31;9.65;;;7.07;;
61038;SDS011;46919;45.816;3.104;2023-12-07T11:40:31;9.68;;;7.13;;
61038;SDS011;46919;45.816;3.104;2023-12-07T11:43:05;9.32;;;6.53;;
61038;SDS011;46919;45.816;3.104;2023-12-07T11:48:15;11.52;;;6.90;;
61038;SDS011;46919;45.816;3.104;2023-12-07T11:53:34;11.43;;;6.40;;
61038;SDS011;46919;45.816;3.104;2023-12-07T11:56:02;8.55;;;5.78;;
61038;SDS011;46919;45.816;3.104;2023-12-07T11:58:38;9.18;;;5.85;;
61038;SDS011;46919;45.816;3.104;2023-12-07T12:01:04;9.85;;;5.47;;
61038;SDS011;46919;45.816;3.104;2023-12-07T12:03:30;9.05;;;5.32;;
61038;SDS011;46919;45.816;3.104;2023-12-07T12:05:59;7.95;;;5.43;;
61038;SDS011;46919;45.816;3.104;2023-12-07T12:08:27;9.63;;;5.88;;
61038;SDS011;46919;45.816;3.104;2023-12-07T12:10:53;10.30;;;6.25;;
61038;SDS011;46919;45.816;3.104;2023-12-07T12:13:25;10.43;;;6.10;;
61038;SDS011;46919;45.816;3.104;2023-12-07T12:15:53;9.32;;;6.15;;
61038;SDS011;46919;45.816;3.104;2023-12-07T12:18:18;9.95;;;6.15;;
61038;SDS011;46919;45.816;3.104;2023-12-07T12:20:44;8.93;;;5.70;;
61038;SDS011;46919;45.816;3.104;2023-12-07T12:23:10;12.35;;;6.15;;
61038;SDS011;46919;45.816;3.104;2023-12-07T12:25:35;9.05;;;5.45;;
61038;SDS011;46919;45.816;3.104;2023-12-07T12:28:02;10.70;;;5.55;;
61038;SDS011;46919;45.816;3.104;2023-12-07T12:30:30;9.48;;;5.63;;
61038;SDS011;46919;45.816;3.104;2023-12-07T12:32:56;7.85;;;5.28;;
61038;SDS011;46919;45.816;3.104;2023-12-07T12:35:22;10.60;;;5.85;;
61038;SDS011;46919;45.816;3.104;2023-12-07T12:37:48;7.15;;;4.80;;
61038;SDS011;46919;45.816;3.104;2023-12-07T12:40:15;9.60;;;5.47;;
61038;SDS011;46919;45.816;3.104;2023-12-07T12:42:43;6.65;;;5.15;;
61038;SDS011;46919;45.816;3.104;2023-12-07T12:45:17;7.72;;;5.10;;
61038;SDS011;46919;45.816;3.104;2023-12-07T12:47:44;9.25;;;5.60;;
61038;SDS011;46919;45.816;3.104;2023-12-07T12:50:11;9.00;;;5.25;;
61038;SDS011;46919;45.816;3.104;2023-12-07T12:52:39;8.48;;;5.22;;
61038;SDS011;46919;45.816;3.104;2023-12-07T12:55:11;7.85;;;5.60;;
61038;SDS011;46919;45.816;3.104;2023-12-07T12:57:37;10.57;;;6.20;;
61038;SDS011;46919;45.816;3.104;2023-12-07T13:00:03;8.95;;;5.97;;
61038;SDS011;46919;45.816;3.104;2023-12-07T13:02:32;8.98;;;5.65;;
61038;SDS011;46919;45.816;3.104;2023-12-07T13:04:58;7.32;;;4.65;;
61038;SDS011;46919;45.816;3.104;2023-12-07T13:07:24;8.60;;;5.40;;
61038;SDS011;46919;45.816;3.104;2023-12-07T13:09:49;12.93;;;8.70;;
61038;SDS011;46919;45.816;3.104;2023-12-07T13:12:15;10.02;;;7.07;;
61038;SDS011;46919;45.816;3.104;2023-12-07T13:14:41;6.95;;;4.85;;
61038;SDS011;46919;45.816;3.104;2023-12-07T13:17:06;6.75;;;4.60;;
61038;SDS011;46919;45.816;3.104;2023-12-07T13:19:33;6.80;;;4.50;;
61038;SDS011;46919;45.816;3.104;2023-12-07T13:21:58;10.88;;;5.55;;
61038;SDS011;46919;45.816;3.104;2023-12-07T13:24:24;10.05;;;5.75;;
61038;SDS011;46919;45.816;3.104;2023-12-07T13:26:49;9.43;;;5.88;;
61038;SDS011;46919;45.816;3.104;2023-12-07T13:29:15;11.18;;;5.65;;
61038;SDS011;46919;45.816;3.104;2023-12-07T13:31:40;8.02;;;5.90;;
61038;SDS011;46919;45.816;3.104;2023-12-07T13:34:05;10.32;;;6.90;;
61038;SDS011;46919;45.816;3.104;2023-12-07T13:36:31;11.32;;;7.60;;
61038;SDS011;46919;45.816;3.104;2023-12-07T13:38:58;15.70;;;8.60;;
61038;SDS011;46919;45.816;3.104;2023-12-07T13:41:27;17.83;;;9.07;;
61038;SDS011;46919;45.816;3.104;2023-12-07T13:43:53;12.57;;;7.50;;
61038;SDS011;46919;45.816;3.104;2023-12-07T13:46:18;10.63;;;6.95;;
61038;SDS011;46919;45.816;3.104;2023-12-07T13:48:44;13.80;;;7.90;;
61038;SDS011;46919;45.816;3.104;2023-12-07T13:51:10;14.02;;;7.80;;
61038;SDS011;46919;45.816;3.104;2023-12-07T13:53:36;13.10;;;7.35;;
61038;SDS011;46919;45.816;3.104;2023-12-07T13:56:02;12.82;;;6.55;;
61038;SDS011;46919;45.816;3.104;2023-12-07T13:58:29;10.60;;;6.95;;
61038;SDS011;46919;45.816;3.104;2023-12-07T14:00:55;12.43;;;7.40;;
61038;SDS011;46919;45.816;3.104;2023-12-07T14:03:20;10.30;;;6.97;;
61038;SDS011;46919;45.816;3.104;2023-12-07T14:05:46;16.67;;;8.30;;
61038;SDS011;46919;45.816;3.104;2023-12-07T14:08:12;11.00;;;7.90;;
61038;SDS011;46919;45.816;3.104;2023-12-07T14:10:38;13.73;;;7.63;;
61038;SDS011;46919;45.816;3.104;2023-12-07T14:13:03;13.88;;;7.93;;
61038;SDS011;46919;45.816;3.104;2023-12-07T14:15:29;14.27;;;8.50;;
61038;SDS011;46919;45.816;3.104;2023-12-07T14:17:54;14.88;;;8.45;;
61038;SDS011;46919;45.816;3.104;2023-12-07T14:20:19;20.27;;;10.00;;
61038;SDS011;46919;45.816;3.104;2023-12-07T14:22:49;17.55;;;10.35;;
61038;SDS011;46919;45.816;3.104;2023-12-07T14:25:14;18.25;;;10.73;;
61038;SDS011;46919;45.816;3.104;2023-12-07T14:27:41;21.05;;;12.60;;
61038;SDS011;46919;45.816;3.104;2023-12-07T14:30:06;17.48;;;11.68;;
61038;SDS011;46919;45.816;3.104;2023-12-07T14:32:33;17.83;;;10.90;;
61038;SDS011;46919;45.816;3.104;2023-12-07T14:34:58;14.60;;;8.70;;
61038;SDS011;46919;45.816;3.104;2023-12-07T14:37:24;9.75;;;6.93;;
61038;SDS011;46919;45.816;3.104;2023-12-07T14:39:50;11.77;;;7.43;;